sensor_id;sensor_type;location;lat;lon;timestamp;P1;durP1;ratioP1;P2;durP2;ratioP2
7517;SDS011;3800;48.922;9.444;2022-12-18T00:02:12;62.77;;;33.07;;
7517;SDS011;3800;48.922;9.444;2022-12-18T00:04:40;59.63;;;34.00;;
7517;SDS011;3800;48.922;9.444;2022-12-18T00:07:08;56.00;;;33.17;;
7517;SDS011;3800;48.922;9.444;2022-12-18T00:09:35;60.83;;;35.00;;
7517;SDS011;3800;48.922;9.444;2022-12-18T00:12:03;54.17;;;33.23;;
7517;SDS011;3800;48.922;9.444;2022-12-18T00:14:31;56.33;;;31.57;;
7517;SDS011;3800;48.922;9.444;2022-12-18T00:16:59;53.67;;;31.53;;
7517;SDS011;3800;48.922;9.444;2022-12-18T00:19:27;55.30;;;32.23;;
7517;SDS011;3800;48.922;9.444;2022-12-18T00:21:55;60.30;;;31.87;;
7517;SDS011;3800;48.922;9.444;2022-12-18T00:24:23;61.67;;;31.20;;
7517;SDS011;3800;48.922;9.444;2022-12-18T00:26:50;57.07;;;32.13;;
7517;SDS011;3800;48.922;9.444;2022-12-18T00:29:18;50.27;;;30.67;;
7517;SDS011;3800;48.922;9.444;2022-12-18T00:31:46;61.33;;;32.07;;
7517;SDS011;3800;48.922;9.444;2022-12-18T00:34:14;44.63;;;28.23;;
7517;SDS011;3800;48.922;9.444;2022-12-18T00:36:42;56.43;;;28.60;;
7517;SDS011;3800;48.922;9.444;2022-12-18T00:39:10;48.30;;;29.37;;
7517;SDS011;3800;48.922;9.444;2022-12-18T00:41:37;53.47;;;29.83;;
7517;SDS011;3800;48.922;9.444;2022-12-18T00:44:12;61.87;;;30.50;;
7517;SDS011;3800;48.922;9.444;2022-12-18T00:46:39;43.83;;;28.60;;
7517;SDS011;3800;48.922;9.444;2022-12-18T00:49:07;50.37;;;29.30;;
7517;SDS011;3800;48.922;9.444;2022-12-18T00:51:35;54.27;;;32.23;;
7517;SDS011;3800;48.922;9.444;2022-12-18T00:54:02;51.20;;;28.90;;
7517;SDS011;3800;48.922;9.444;2022-12-18T00:56:30;47.00;;;30.17;;
7517;SDS011;3800;48.922;9.444;2022-12-18T00:58:58;44.20;;;28.67;;
7517;SDS011;3800;48.922;9.444;2022-12-18T01:01:25;44.97;;;29.23;;
7517;SDS011;3800;48.922;9.444;2022-12-18T01:03:53;56.23;;;29.83;;
7517;SDS011;3800;48.922;9.444;2022-12-18T01:06:21;40.83;;;27.57;;
7517;SDS011;3800;48.922;9.444;2022-12-18T01:08:48;44.67;;;30.00;;
7517;SDS011;3800;48.922;9.444;2022-12-18T01:11:17;44.17;;;27.37;;
7517;SDS011;3800;48.922;9.444;2022-12-18T01:13:44;46.57;;;28.57;;
7517;SDS011;3800;48.922;9.444;2022-12-18T01:16:12;49.20;;;28.23;;
7517;SDS011;3800;48.922;9.444;2022-12-18T01:18:39;47.87;;;26.53;;
7517;SDS011;3800;48.922;9.444;2022-12-18T01:21:07;50.07;;;27.20;;
7517;SDS011;3800;48.922;9.444;2022-12-18T01:23:35;45.70;;;27.33;;
7517;SDS011;3800;48.922;9.444;2022-12-18T01:26:10;49.47;;;28.67;;
7517;SDS011;3800;48.922;9.444;2022-12-18T01:28:37;47.33;;;28.53;;
7517;SDS011;3800;48.922;9.444;2022-12-18T01:31:13;48.50;;;26.87;;
7517;SDS011;3800;48.922;9.444;2022-12-18T01:33:41;45.40;;;27.70;;
7517;SDS011;3800;48.922;9.444;2022-12-18T01:36:14;42.97;;;27.47;;
7517;SDS011;3800;48.922;9.444;2022-12-18T01:38:36;42.57;;;27.10;;
7517;SDS011;3800;48.922;9.444;2022-12-18T01:41:04;45.37;;;27.57;;
7517;SDS011;3800;48.922;9.444;2022-12-18T01:46:10;43.23;;;27.27;;
7517;SDS011;3800;48.922;9.444;2022-12-18T01:48:39;49.30;;;28.70;;
7517;SDS011;3800;48.922;9.444;2022-12-18T01:51:07;46.10;;;25.77;;
7517;SDS011;3800;48.922;9.444;2022-12-18T01:53:35;53.67;;;28.27;;
7517;SDS011;3800;48.922;9.444;2022-12-18T01:56:02;46.77;;;26.30;;
7517;SDS011;3800;48.922;9.444;2022-12-18T01:58:48;45.60;;;28.30;;
7517;SDS011;3800;48.922;9.444;2022-12-18T02:01:13;48.10;;;27.57;;
7517;SDS011;3800;48.922;9.444;2022-12-18T02:03:41;36.13;;;24.80;;
7517;SDS011;3800;48.922;9.444;2022-12-18T02:06:10;50.97;;;27.60;;
7517;SDS011;3800;48.922;9.444;2022-12-18T02:08:41;44.63;;;27.93;;
7517;SDS011;3800;48.922;9.444;2022-12-18T02:11:18;50.33;;;29.23;;
7517;SDS011;3800;48.922;9.444;2022-12-18T02:13:50;42.93;;;25.93;;
7517;SDS011;3800;48.922;9.444;2022-12-18T02:16:23;45.83;;;26.43;;
7517;SDS011;3800;48.922;9.444;2022-12-18T02:18:54;45.53;;;26.53;;
7517;SDS011;3800;48.922;9.444;2022-12-18T02:21:27;50.77;;;27.53;;
7517;SDS011;3800;48.922;9.444;2022-12-18T02:24:15;45.23;;;27.43;;
7517;SDS011;3800;48.922;9.444;2022-12-18T02:26:59;42.83;;;25.50;;
7517;SDS011;3800;48.922;9.444;2022-12-18T02:29:30;45.53;;;26.07;;
7517;SDS011;3800;48.922;9.444;2022-12-18T02:31:57;37.60;;;24.17;;
7517;SDS011;3800;48.922;9.444;2022-12-18T02:34:26;40.80;;;24.23;;
7517;SDS011;3800;48.922;9.444;2022-12-18T02:36:53;39.37;;;25.60;;
7517;SDS011;3800;48.922;9.444;2022-12-18T02:39:21;38.20;;;24.80;;
7517;SDS011;3800;48.922;9.444;2022-12-18T02:41:49;42.47;;;26.20;;
7517;SDS011;3800;48.922;9.444;2022-12-18T02:44:17;43.90;;;25.17;;
7517;SDS011;3800;48.922;9.444;2022-12-18T02:46:45;41.33;;;25.57;;
7517;SDS011;3800;48.922;9.444;2022-12-18T02:49:20;38.17;;;26.47;;
7517;SDS011;3800;48.922;9.444;2022-12-18T02:51:50;39.70;;;23.83;;
7517;SDS011;3800;48.922;9.444;2022-12-18T02:54:21;43.07;;;25.57;;
7517;SDS011;3800;48.922;9.444;2022-12-18T02:57:04;45.23;;;24.97;;
7517;SDS011;3800;48.922;9.444;2022-12-18T02:59:33;56.67;;;28.87;;
7517;SDS011;3800;48.922;9.444;2022-12-18T03:01:59;41.53;;;26.47;;
7517;SDS011;3800;48.922;9.444;2022-12-18T03:04:28;51.67;;;28.17;;
7517;SDS011;3800;48.922;9.444;2022-12-18T03:07:09;49.97;;;27.13;;
7517;SDS011;3800;48.922;9.444;2022-12-18T03:09:36;46.43;;;26.40;;
7517;SDS011;3800;48.922;9.444;2022-12-18T03:12:09;49.83;;;28.17;;
7517;SDS011;3800;48.922;9.444;2022-12-18T03:14:43;43.13;;;27.10;;
7517;SDS011;3800;48.922;9.444;2022-12-18T03:17:11;45.13;;;24.63;;
7517;SDS011;3800;48.922;9.444;2022-12-18T03:19:39;46.27;;;26.00;;
7517;SDS011;3800;48.922;9.444;2022-12-18T03:22:07;46.07;;;27.13;;
7517;SDS011;3800;48.922;9.444;2022-12-18T03:24:35;52.50;;;27.73;;
7517;SDS011;3800;48.922;9.444;2022-12-18T03:27:04;48.93;;;28.23;;
7517;SDS011;3800;48.922;9.444;2022-12-18T03:29:33;46.57;;;26.83;;
7517;SDS011;3800;48.922;9.444;2022-12-18T03:32:03;44.73;;;26.37;;
7517;SDS011;3800;48.922;9.444;2022-12-18T03:34:30;46.37;;;26.40;;
7517;SDS011;3800;48.922;9.444;2022-12-18T03:36:57;44.67;;;25.83;;
7517;SDS011;3800;48.922;9.444;2022-12-18T03:39:25;46.20;;;22.93;;
7517;SDS011;3800;48.922;9.444;2022-12-18T03:41:55;37.07;;;22.90;;
7517;SDS011;3800;48.922;9.444;2022-12-18T03:44:33;45.57;;;23.63;;
7517;SDS011;3800;48.922;9.444;2022-12-18T03:47:09;37.00;;;21.67;;
7517;SDS011;3800;48.922;9.444;2022-12-18T03:49:46;36.10;;;21.57;;
7517;SDS011;3800;48.922;9.444;2022-12-18T03:52:15;36.43;;;21.60;;
7517;SDS011;3800;48.922;9.444;2022-12-18T03:54:41;39.83;;;22.27;;
7517;SDS011;3800;48.922;9.444;2022-12-18T03:57:11;40.80;;;22.83;;
7517;SDS011;3800;48.922;9.444;2022-12-18T03:59:40;36.63;;;22.10;;
7517;SDS011;3800;48.922;9.444;2022-12-18T04:02:08;37.07;;;21.00;;
7517;SDS011;3800;48.922;9.444;2022-12-18T04:04:35;35.47;;;20.57;;
7517;SDS011;3800;48.922;9.444;2022-12-18T04:07:03;27.40;;;19.20;;
7517;SDS011;3800;48.922;9.444;2022-12-18T04:09:31;33.53;;;19.63;;
7517;SDS011;3800;48.922;9.444;2022-12-18T04:11:58;34.70;;;21.17;;
7517;SDS011;3800;48.922;9.444;2022-12-18T04:14:27;32.73;;;21.27;;
7517;SDS011;3800;48.922;9.444;2022-12-18T04:16:54;32.73;;;20.27;;
7517;SDS011;3800;48.922;9.444;2022-12-18T04:19:23;34.63;;;21.07;;
7517;SDS011;3800;48.922;9.444;2022-12-18T04:21:50;36.40;;;22.50;;
7517;SDS011;3800;48.922;9.444;2022-12-18T04:24:19;37.03;;;24.27;;
7517;SDS011;3800;48.922;9.444;2022-12-18T04:26:46;35.50;;;22.33;;
7517;SDS011;3800;48.922;9.444;2022-12-18T04:29:15;43.73;;;21.90;;
7517;SDS011;3800;48.922;9.444;2022-12-18T04:31:43;34.43;;;20.80;;
7517;SDS011;3800;48.922;9.444;2022-12-18T04:34:10;33.83;;;21.27;;
7517;SDS011;3800;48.922;9.444;2022-12-18T04:36:38;36.03;;;21.20;;
7517;SDS011;3800;48.922;9.444;2022-12-18T04:39:06;30.80;;;18.77;;
7517;SDS011;3800;48.922;9.444;2022-12-18T04:41:34;36.90;;;20.13;;
7517;SDS011;3800;48.922;9.444;2022-12-18T04:44:02;35.37;;;20.57;;
7517;SDS011;3800;48.922;9.444;2022-12-18T04:46:30;30.60;;;19.40;;
7517;SDS011;3800;48.922;9.444;2022-12-18T04:48:58;30.23;;;20.37;;
7517;SDS011;3800;48.922;9.444;2022-12-18T04:51:26;37.23;;;22.77;;
7517;SDS011;3800;48.922;9.444;2022-12-18T04:53:55;37.37;;;20.37;;
7517;SDS011;3800;48.922;9.444;2022-12-18T04:56:22;31.47;;;19.07;;
7517;SDS011;3800;48.922;9.444;2022-12-18T04:58:51;34.63;;;19.67;;
7517;SDS011;3800;48.922;9.444;2022-12-18T05:01:18;34.67;;;20.60;;
7517;SDS011;3800;48.922;9.444;2022-12-18T05:03:47;28.40;;;18.80;;
7517;SDS011;3800;48.922;9.444;2022-12-18T05:06:14;31.87;;;18.37;;
7517;SDS011;3800;48.922;9.444;2022-12-18T05:08:42;31.63;;;19.70;;
7517;SDS011;3800;48.922;9.444;2022-12-18T05:11:12;33.23;;;19.07;;
7517;SDS011;3800;48.922;9.444;2022-12-18T05:13:38;27.20;;;16.80;;
7517;SDS011;3800;48.922;9.444;2022-12-18T05:16:06;29.17;;;17.53;;
7517;SDS011;3800;48.922;9.444;2022-12-18T05:18:34;29.53;;;16.93;;
7517;SDS011;3800;48.922;9.444;2022-12-18T05:21:01;23.97;;;17.33;;
7517;SDS011;3800;48.922;9.444;2022-12-18T05:23:29;31.67;;;19.83;;
7517;SDS011;3800;48.922;9.444;2022-12-18T05:25:58;27.40;;;16.13;;
7517;SDS011;3800;48.922;9.444;2022-12-18T05:28:25;27.63;;;18.77;;
7517;SDS011;3800;48.922;9.444;2022-12-18T05:30:53;30.27;;;17.30;;
7517;SDS011;3800;48.922;9.444;2022-12-18T05:33:21;33.03;;;18.47;;
7517;SDS011;3800;48.922;9.444;2022-12-18T05:35:51;28.87;;;18.43;;
7517;SDS011;3800;48.922;9.444;2022-12-18T05:38:19;35.80;;;20.40;;
7517;SDS011;3800;48.922;9.444;2022-12-18T05:40:47;35.53;;;19.60;;
7517;SDS011;3800;48.922;9.444;2022-12-18T05:43:14;30.97;;;18.70;;
7517;SDS011;3800;48.922;9.444;2022-12-18T05:45:42;32.40;;;19.70;;
7517;SDS011;3800;48.922;9.444;2022-12-18T05:48:10;26.83;;;18.17;;
7517;SDS011;3800;48.922;9.444;2022-12-18T05:50:38;34.83;;;18.00;;
7517;SDS011;3800;48.922;9.444;2022-12-18T05:53:06;26.50;;;18.23;;
7517;SDS011;3800;48.922;9.444;2022-12-18T05:55:34;31.23;;;18.53;;
7517;SDS011;3800;48.922;9.444;2022-12-18T05:58:03;29.50;;;18.30;;
7517;SDS011;3800;48.922;9.444;2022-12-18T06:00:30;28.27;;;17.90;;
7517;SDS011;3800;48.922;9.444;2022-12-18T06:02:58;32.63;;;18.03;;
7517;SDS011;3800;48.922;9.444;2022-12-18T06:05:25;27.63;;;17.47;;
7517;SDS011;3800;48.922;9.444;2022-12-18T06:07:53;30.03;;;18.07;;
7517;SDS011;3800;48.922;9.444;2022-12-18T06:10:21;28.77;;;18.27;;
7517;SDS011;3800;48.922;9.444;2022-12-18T06:12:48;31.83;;;18.67;;
7517;SDS011;3800;48.922;9.444;2022-12-18T06:15:16;29.73;;;16.97;;
7517;SDS011;3800;48.922;9.444;2022-12-18T06:17:44;26.10;;;18.43;;
7517;SDS011;3800;48.922;9.444;2022-12-18T06:20:12;27.97;;;17.80;;
7517;SDS011;3800;48.922;9.444;2022-12-18T06:22:40;30.00;;;17.53;;
7517;SDS011;3800;48.922;9.444;2022-12-18T06:25:08;29.07;;;18.13;;
7517;SDS011;3800;48.922;9.444;2022-12-18T06:27:36;28.20;;;17.50;;
7517;SDS011;3800;48.922;9.444;2022-12-18T06:30:04;28.73;;;17.77;;
7517;SDS011;3800;48.922;9.444;2022-12-18T06:32:32;26.77;;;17.23;;
7517;SDS011;3800;48.922;9.444;2022-12-18T06:35:00;23.30;;;16.80;;
7517;SDS011;3800;48.922;9.444;2022-12-18T06:37:28;27.97;;;17.80;;
7517;SDS011;3800;48.922;9.444;2022-12-18T06:39:56;30.60;;;19.20;;
7517;SDS011;3800;48.922;9.444;2022-12-18T06:42:24;27.60;;;17.40;;
7517;SDS011;3800;48.922;9.444;2022-12-18T06:44:51;30.00;;;18.00;;
7517;SDS011;3800;48.922;9.444;2022-12-18T06:47:19;31.27;;;18.87;;
7517;SDS011;3800;48.922;9.444;2022-12-18T06:49:47;33.60;;;18.77;;
7517;SDS011;3800;48.922;9.444;2022-12-18T06:52:15;23.97;;;16.70;;
7517;SDS011;3800;48.922;9.444;2022-12-18T06:54:43;33.33;;;18.43;;
7517;SDS011;3800;48.922;9.444;2022-12-18T06:57:11;29.43;;;17.93;;
7517;SDS011;3800;48.922;9.444;2022-12-18T06:59:38;29.27;;;17.93;;
7517;SDS011;3800;48.922;9.444;2022-12-18T07:02:06;24.90;;;17.07;;
7517;SDS011;3800;48.922;9.444;2022-12-18T07:04:33;27.40;;;17.50;;
7517;SDS011;3800;48.922;9.444;2022-12-18T07:07:02;24.43;;;16.87;;
7517;SDS011;3800;48.922;9.444;2022-12-18T07:09:30;31.63;;;18.63;;
7517;SDS011;3800;48.922;9.444;2022-12-18T07:11:57;27.80;;;17.87;;
7517;SDS011;3800;48.922;9.444;2022-12-18T07:14:25;26.13;;;16.00;;
7517;SDS011;3800;48.922;9.444;2022-12-18T07:16:52;35.33;;;18.67;;
7517;SDS011;3800;48.922;9.444;2022-12-18T07:19:20;29.40;;;17.30;;
7517;SDS011;3800;48.922;9.444;2022-12-18T07:21:49;26.70;;;17.13;;
7517;SDS011;3800;48.922;9.444;2022-12-18T07:24:16;27.73;;;18.10;;
7517;SDS011;3800;48.922;9.444;2022-12-18T07:26:45;27.63;;;17.80;;
7517;SDS011;3800;48.922;9.444;2022-12-18T07:29:12;28.20;;;17.33;;
7517;SDS011;3800;48.922;9.444;2022-12-18T07:31:40;31.10;;;17.23;;
7517;SDS011;3800;48.922;9.444;2022-12-18T07:34:11;28.10;;;17.90;;
7517;SDS011;3800;48.922;9.444;2022-12-18T07:36:38;27.97;;;18.13;;
7517;SDS011;3800;48.922;9.444;2022-12-18T07:39:06;29.87;;;17.63;;
7517;SDS011;3800;48.922;9.444;2022-12-18T07:41:34;29.17;;;17.53;;
7517;SDS011;3800;48.922;9.444;2022-12-18T07:44:01;30.33;;;16.73;;
7517;SDS011;3800;48.922;9.444;2022-12-18T07:46:29;28.67;;;17.33;;
7517;SDS011;3800;48.922;9.444;2022-12-18T07:48:56;27.27;;;17.17;;
7517;SDS011;3800;48.922;9.444;2022-12-18T07:51:25;29.17;;;17.73;;
7517;SDS011;3800;48.922;9.444;2022-12-18T07:53:53;28.77;;;17.43;;
7517;SDS011;3800;48.922;9.444;2022-12-18T07:56:21;31.50;;;19.47;;
7517;SDS011;3800;48.922;9.444;2022-12-18T07:58:49;28.70;;;17.83;;
7517;SDS011;3800;48.922;9.444;2022-12-18T08:01:16;26.67;;;17.87;;
7517;SDS011;3800;48.922;9.444;2022-12-18T08:03:44;32.37;;;18.97;;
7517;SDS011;3800;48.922;9.444;2022-12-18T08:06:12;32.17;;;19.10;;
7517;SDS011;3800;48.922;9.444;2022-12-18T08:08:39;31.07;;;20.40;;
7517;SDS011;3800;48.922;9.444;2022-12-18T08:11:07;36.13;;;19.80;;
7517;SDS011;3800;48.922;9.444;2022-12-18T08:13:34;32.07;;;18.00;;
7517;SDS011;3800;48.922;9.444;2022-12-18T08:16:03;30.67;;;18.67;;
7517;SDS011;3800;48.922;9.444;2022-12-18T08:18:31;32.07;;;19.03;;
7517;SDS011;3800;48.922;9.444;2022-12-18T08:21:08;31.40;;;18.10;;
7517;SDS011;3800;48.922;9.444;2022-12-18T08:23:37;37.57;;;20.23;;
7517;SDS011;3800;48.922;9.444;2022-12-18T08:26:04;35.10;;;20.17;;
7517;SDS011;3800;48.922;9.444;2022-12-18T08:28:33;31.63;;;19.83;;
7517;SDS011;3800;48.922;9.444;2022-12-18T08:31:00;30.70;;;18.40;;
7517;SDS011;3800;48.922;9.444;2022-12-18T08:33:29;31.97;;;17.33;;
7517;SDS011;3800;48.922;9.444;2022-12-18T08:35:57;29.97;;;17.23;;
7517;SDS011;3800;48.922;9.444;2022-12-18T08:38:24;36.63;;;18.90;;
7517;SDS011;3800;48.922;9.444;2022-12-18T08:40:58;34.27;;;19.67;;
7517;SDS011;3800;48.922;9.444;2022-12-18T08:43:33;32.50;;;18.77;;
7517;SDS011;3800;48.922;9.444;2022-12-18T08:46:06;38.23;;;18.67;;
7517;SDS011;3800;48.922;9.444;2022-12-18T08:48:34;34.27;;;19.93;;
7517;SDS011;3800;48.922;9.444;2022-12-18T08:51:01;36.23;;;19.70;;
7517;SDS011;3800;48.922;9.444;2022-12-18T08:53:29;35.80;;;19.60;;
7517;SDS011;3800;48.922;9.444;2022-12-18T08:55:56;32.10;;;20.10;;
7517;SDS011;3800;48.922;9.444;2022-12-18T08:58:25;34.47;;;20.67;;
7517;SDS011;3800;48.922;9.444;2022-12-18T09:00:53;35.30;;;19.23;;
7517;SDS011;3800;48.922;9.444;2022-12-18T09:03:20;36.60;;;18.80;;
7517;SDS011;3800;48.922;9.444;2022-12-18T09:05:48;33.47;;;19.37;;
7517;SDS011;3800;48.922;9.444;2022-12-18T09:08:15;34.33;;;19.57;;
7517;SDS011;3800;48.922;9.444;2022-12-18T09:10:44;37.33;;;19.43;;
7517;SDS011;3800;48.922;9.444;2022-12-18T09:13:12;33.00;;;18.33;;
7517;SDS011;3800;48.922;9.444;2022-12-18T09:15:41;31.60;;;19.00;;
7517;SDS011;3800;48.922;9.444;2022-12-18T09:18:09;35.93;;;18.93;;
7517;SDS011;3800;48.922;9.444;2022-12-18T09:20:37;30.10;;;17.63;;
7517;SDS011;3800;48.922;9.444;2022-12-18T09:23:05;35.63;;;18.47;;
7517;SDS011;3800;48.922;9.444;2022-12-18T09:25:33;30.80;;;17.87;;
7517;SDS011;3800;48.922;9.444;2022-12-18T09:28:00;31.83;;;18.10;;
7517;SDS011;3800;48.922;9.444;2022-12-18T09:30:29;33.20;;;18.07;;
7517;SDS011;3800;48.922;9.444;2022-12-18T09:32:56;33.50;;;18.77;;
7517;SDS011;3800;48.922;9.444;2022-12-18T09:35:24;35.23;;;19.53;;
7517;SDS011;3800;48.922;9.444;2022-12-18T09:37:52;34.07;;;18.80;;
7517;SDS011;3800;48.922;9.444;2022-12-18T09:40:21;32.80;;;19.47;;
7517;SDS011;3800;48.922;9.444;2022-12-18T09:42:50;35.90;;;20.47;;
7517;SDS011;3800;48.922;9.444;2022-12-18T09:45:15;37.43;;;20.23;;
7517;SDS011;3800;48.922;9.444;2022-12-18T09:47:43;32.77;;;19.37;;
7517;SDS011;3800;48.922;9.444;2022-12-18T09:52:51;40.03;;;20.40;;
7517;SDS011;3800;48.922;9.444;2022-12-18T09:55:23;40.23;;;22.00;;
7517;SDS011;3800;48.922;9.444;2022-12-18T09:57:56;37.70;;;20.97;;
7517;SDS011;3800;48.922;9.444;2022-12-18T10:00:23;39.90;;;21.47;;
7517;SDS011;3800;48.922;9.444;2022-12-18T10:02:51;39.27;;;20.73;;
7517;SDS011;3800;48.922;9.444;2022-12-18T10:05:24;41.63;;;20.53;;
7517;SDS011;3800;48.922;9.444;2022-12-18T10:07:55;35.47;;;20.27;;
7517;SDS011;3800;48.922;9.444;2022-12-18T10:10:26;38.43;;;19.97;;
7517;SDS011;3800;48.922;9.444;2022-12-18T10:13:02;37.00;;;18.93;;
7517;SDS011;3800;48.922;9.444;2022-12-18T10:15:34;35.37;;;18.43;;
7517;SDS011;3800;48.922;9.444;2022-12-18T10:18:11;37.23;;;18.43;;
7517;SDS011;3800;48.922;9.444;2022-12-18T10:20:39;37.60;;;18.60;;
7517;SDS011;3800;48.922;9.444;2022-12-18T10:23:39;37.00;;;19.23;;
7517;SDS011;3800;48.922;9.444;2022-12-18T10:28:25;40.83;;;20.37;;
7517;SDS011;3800;48.922;9.444;2022-12-18T10:30:53;37.00;;;19.93;;
7517;SDS011;3800;48.922;9.444;2022-12-18T10:33:21;36.87;;;19.00;;
7517;SDS011;3800;48.922;9.444;2022-12-18T10:35:49;34.87;;;19.33;;
7517;SDS011;3800;48.922;9.444;2022-12-18T10:38:21;34.20;;;17.97;;
7517;SDS011;3800;48.922;9.444;2022-12-18T10:40:52;37.77;;;19.87;;
7517;SDS011;3800;48.922;9.444;2022-12-18T10:43:20;35.13;;;18.60;;
7517;SDS011;3800;48.922;9.444;2022-12-18T10:48:24;33.23;;;18.43;;
7517;SDS011;3800;48.922;9.444;2022-12-18T10:50:53;34.20;;;18.13;;
7517;SDS011;3800;48.922;9.444;2022-12-18T10:53:23;30.77;;;17.43;;
7517;SDS011;3800;48.922;9.444;2022-12-18T10:55:52;33.27;;;17.50;;
7517;SDS011;3800;48.922;9.444;2022-12-18T10:58:23;31.27;;;17.83;;
7517;SDS011;3800;48.922;9.444;2022-12-18T11:01:01;32.93;;;18.70;;
7517;SDS011;3800;48.922;9.444;2022-12-18T11:03:31;33.43;;;18.40;;
7517;SDS011;3800;48.922;9.444;2022-12-18T11:06:04;33.27;;;18.40;;
7517;SDS011;3800;48.922;9.444;2022-12-18T11:08:32;34.83;;;19.17;;
7517;SDS011;3800;48.922;9.444;2022-12-18T11:11:00;33.67;;;19.23;;
7517;SDS011;3800;48.922;9.444;2022-12-18T11:13:29;32.77;;;18.77;;
7517;SDS011;3800;48.922;9.444;2022-12-18T11:15:56;37.07;;;19.80;;
7517;SDS011;3800;48.922;9.444;2022-12-18T11:18:29;37.67;;;19.87;;
7517;SDS011;3800;48.922;9.444;2022-12-18T11:20:59;34.00;;;18.80;;
7517;SDS011;3800;48.922;9.444;2022-12-18T11:23:26;34.63;;;19.17;;
7517;SDS011;3800;48.922;9.444;2022-12-18T11:25:57;34.80;;;19.10;;
7517;SDS011;3800;48.922;9.444;2022-12-18T11:28:28;29.97;;;17.37;;
7517;SDS011;3800;48.922;9.444;2022-12-18T11:33:37;33.60;;;17.90;;
7517;SDS011;3800;48.922;9.444;2022-12-18T11:36:05;31.67;;;17.47;;
7517;SDS011;3800;48.922;9.444;2022-12-18T11:38:34;31.80;;;17.77;;
7517;SDS011;3800;48.922;9.444;2022-12-18T11:41:04;27.13;;;16.47;;
7517;SDS011;3800;48.922;9.444;2022-12-18T11:43:42;29.83;;;18.10;;
7517;SDS011;3800;48.922;9.444;2022-12-18T11:46:09;33.93;;;17.57;;
7517;SDS011;3800;48.922;9.444;2022-12-18T11:48:37;30.13;;;18.30;;
7517;SDS011;3800;48.922;9.444;2022-12-18T11:51:11;33.77;;;18.73;;
7517;SDS011;3800;48.922;9.444;2022-12-18T11:53:37;30.13;;;16.93;;
7517;SDS011;3800;48.922;9.444;2022-12-18T11:56:16;29.90;;;17.10;;
7517;SDS011;3800;48.922;9.444;2022-12-18T11:58:38;29.53;;;17.63;;
7517;SDS011;3800;48.922;9.444;2022-12-18T12:01:13;33.37;;;18.07;;
7517;SDS011;3800;48.922;9.444;2022-12-18T12:04:00;26.40;;;16.97;;
7517;SDS011;3800;48.922;9.444;2022-12-18T12:06:38;29.23;;;17.63;;
7517;SDS011;3800;48.922;9.444;2022-12-18T12:09:13;29.40;;;17.40;;
7517;SDS011;3800;48.922;9.444;2022-12-18T12:11:54;30.60;;;19.00;;
7517;SDS011;3800;48.922;9.444;2022-12-18T12:14:25;30.63;;;17.33;;
7517;SDS011;3800;48.922;9.444;2022-12-18T12:16:57;32.67;;;18.43;;
7517;SDS011;3800;48.922;9.444;2022-12-18T12:19:38;32.90;;;17.47;;
7517;SDS011;3800;48.922;9.444;2022-12-18T12:22:06;29.83;;;17.83;;
7517;SDS011;3800;48.922;9.444;2022-12-18T12:24:56;27.13;;;16.97;;
7517;SDS011;3800;48.922;9.444;2022-12-18T12:27:25;30.50;;;16.97;;
7517;SDS011;3800;48.922;9.444;2022-12-18T12:30:04;28.50;;;16.33;;
7517;SDS011;3800;48.922;9.444;2022-12-18T12:32:55;28.43;;;16.83;;
7517;SDS011;3800;48.922;9.444;2022-12-18T12:35:25;28.40;;;17.30;;
7517;SDS011;3800;48.922;9.444;2022-12-18T12:38:00;31.93;;;17.83;;
7517;SDS011;3800;48.922;9.444;2022-12-18T12:40:23;27.40;;;16.07;;
7517;SDS011;3800;48.922;9.444;2022-12-18T12:42:54;31.80;;;17.73;;
7517;SDS011;3800;48.922;9.444;2022-12-18T12:45:44;29.23;;;17.23;;
7517;SDS011;3800;48.922;9.444;2022-12-18T12:48:25;32.07;;;18.27;;
7517;SDS011;3800;48.922;9.444;2022-12-18T12:50:50;26.33;;;16.73;;
7517;SDS011;3800;48.922;9.444;2022-12-18T12:53:22;30.03;;;17.37;;
7517;SDS011;3800;48.922;9.444;2022-12-18T12:55:48;29.03;;;17.53;;
7517;SDS011;3800;48.922;9.444;2022-12-18T13:01:05;28.50;;;17.50;;
7517;SDS011;3800;48.922;9.444;2022-12-18T13:03:37;27.70;;;16.90;;
7517;SDS011;3800;48.922;9.444;2022-12-18T13:06:09;28.73;;;17.87;;
7517;SDS011;3800;48.922;9.444;2022-12-18T13:14:01;29.53;;;17.70;;
7517;SDS011;3800;48.922;9.444;2022-12-18T13:16:28;29.67;;;18.13;;
7517;SDS011;3800;48.922;9.444;2022-12-18T13:18:56;26.40;;;16.90;;
7517;SDS011;3800;48.922;9.444;2022-12-18T13:21:27;26.50;;;16.93;;
7517;SDS011;3800;48.922;9.444;2022-12-18T13:23:56;30.77;;;18.63;;
7517;SDS011;3800;48.922;9.444;2022-12-18T13:26:30;30.30;;;19.63;;
7517;SDS011;3800;48.922;9.444;2022-12-18T13:28:58;27.07;;;18.00;;
7517;SDS011;3800;48.922;9.444;2022-12-18T13:34:29;27.40;;;16.60;;
7517;SDS011;3800;48.922;9.444;2022-12-18T13:37:32;26.93;;;16.40;;
7517;SDS011;3800;48.922;9.444;2022-12-18T13:39:26;25.93;;;16.40;;
7517;SDS011;3800;48.922;9.444;2022-12-18T13:41:54;27.40;;;16.67;;
7517;SDS011;3800;48.922;9.444;2022-12-18T13:44:28;28.87;;;16.37;;
7517;SDS011;3800;48.922;9.444;2022-12-18T13:46:59;25.43;;;15.87;;
7517;SDS011;3800;48.922;9.444;2022-12-18T13:52:16;29.20;;;17.87;;
7517;SDS011;3800;48.922;9.444;2022-12-18T13:54:43;27.10;;;15.30;;
7517;SDS011;3800;48.922;9.444;2022-12-18T13:59:53;29.33;;;16.87;;
7517;SDS011;3800;48.922;9.444;2022-12-18T14:02:22;27.53;;;17.00;;
7517;SDS011;3800;48.922;9.444;2022-12-18T14:04:48;25.80;;;15.37;;
7517;SDS011;3800;48.922;9.444;2022-12-18T14:07:17;24.50;;;15.00;;
7517;SDS011;3800;48.922;9.444;2022-12-18T14:09:46;25.40;;;16.57;;
7517;SDS011;3800;48.922;9.444;2022-12-18T14:12:46;26.00;;;16.10;;
7517;SDS011;3800;48.922;9.444;2022-12-18T14:15:03;24.00;;;15.10;;
7517;SDS011;3800;48.922;9.444;2022-12-18T14:17:31;26.27;;;15.83;;
7517;SDS011;3800;48.922;9.444;2022-12-18T14:19:58;26.77;;;16.90;;
7517;SDS011;3800;48.922;9.444;2022-12-18T14:22:26;27.00;;;17.07;;
7517;SDS011;3800;48.922;9.444;2022-12-18T14:27:36;26.73;;;16.23;;
7517;SDS011;3800;48.922;9.444;2022-12-18T14:29:59;28.97;;;16.40;;
7517;SDS011;3800;48.922;9.444;2022-12-18T14:32:27;31.03;;;19.83;;
7517;SDS011;3800;48.922;9.444;2022-12-18T14:34:54;26.57;;;17.53;;
7517;SDS011;3800;48.922;9.444;2022-12-18T14:37:23;25.10;;;15.80;;
7517;SDS011;3800;48.922;9.444;2022-12-18T14:39:52;25.63;;;16.07;;
7517;SDS011;3800;48.922;9.444;2022-12-18T14:42:20;31.87;;;19.33;;
7517;SDS011;3800;48.922;9.444;2022-12-18T14:44:47;29.90;;;19.07;;
7517;SDS011;3800;48.922;9.444;2022-12-18T14:47:15;29.13;;;18.10;;
7517;SDS011;3800;48.922;9.444;2022-12-18T14:49:43;27.03;;;17.43;;
7517;SDS011;3800;48.922;9.444;2022-12-18T14:52:17;27.60;;;17.97;;
7517;SDS011;3800;48.922;9.444;2022-12-18T14:54:54;31.07;;;17.43;;
7517;SDS011;3800;48.922;9.444;2022-12-18T14:57:24;32.57;;;19.17;;
7517;SDS011;3800;48.922;9.444;2022-12-18T14:59:50;28.90;;;18.57;;
7517;SDS011;3800;48.922;9.444;2022-12-18T15:02:19;26.73;;;17.67;;
7517;SDS011;3800;48.922;9.444;2022-12-18T15:04:47;26.40;;;16.53;;
7517;SDS011;3800;48.922;9.444;2022-12-18T15:07:17;28.43;;;16.97;;
7517;SDS011;3800;48.922;9.444;2022-12-18T15:09:44;24.67;;;17.73;;
7517;SDS011;3800;48.922;9.444;2022-12-18T15:12:19;29.97;;;18.90;;
7517;SDS011;3800;48.922;9.444;2022-12-18T15:14:50;28.33;;;19.07;;
7517;SDS011;3800;48.922;9.444;2022-12-18T15:17:18;30.93;;;18.83;;
7517;SDS011;3800;48.922;9.444;2022-12-18T15:19:46;29.93;;;17.63;;
7517;SDS011;3800;48.922;9.444;2022-12-18T15:25:02;29.77;;;19.00;;
7517;SDS011;3800;48.922;9.444;2022-12-18T15:27:31;31.43;;;18.97;;
7517;SDS011;3800;48.922;9.444;2022-12-18T15:30:02;30.33;;;18.77;;
7517;SDS011;3800;48.922;9.444;2022-12-18T15:32:45;27.60;;;17.77;;
7517;SDS011;3800;48.922;9.444;2022-12-18T15:35:14;25.67;;;16.43;;
7517;SDS011;3800;48.922;9.444;2022-12-18T15:37:41;26.80;;;16.37;;